createdAt,value
2019-04-28T00:01:25.555Z,11.70
2019-04-28T00:03:55.306Z,11.70
2019-04-28T00:06:25.235Z,11.70
2019-04-28T00:08:55.141Z,11.80
2019-04-28T00:11:24.977Z,11.70
2019-04-28T00:13:54.896Z,11.80
2019-04-28T00:16:24.863Z,11.80
2019-04-28T00:18:54.707Z,11.80
2019-04-28T00:21:51.559Z,11.80
2019-04-28T00:24:51.840Z,11.90
2019-04-28T00:27:22.127Z,11.80
2019-04-28T00:29:51.994Z,11.70
2019-04-28T00:32:22.103Z,11.70
2019-04-28T00:34:52.027Z,11.70
2019-04-28T00:37:33.511Z,11.70
2019-04-28T00:40:03.351Z,11.70
2019-04-28T00:42:33.099Z,11.70
2019-04-28T00:45:03.202Z,11.60
2019-04-28T00:47:33.126Z,11.60
2019-04-28T00:50:03.075Z,11.60
2019-04-28T00:52:32.885Z,11.60
2019-04-28T00:55:05.578Z,11.60
2019-04-28T00:57:35.388Z,11.50
2019-04-28T01:00:06.058Z,11.50
2019-04-28T01:02:43.830Z,11.50
2019-04-28T01:05:14.208Z,11.40
2019-04-28T01:07:44.072Z,11.40
2019-04-28T01:10:15.146Z,11.40
2019-04-28T01:12:46.781Z,11.30
2019-04-28T01:15:32.145Z,11.30
2019-04-28T01:18:14.279Z,11.30
2019-04-28T01:20:44.207Z,11.30
2019-04-28T01:23:14.075Z,11.30
2019-04-28T01:25:43.890Z,11.20
2019-04-28T01:28:13.767Z,11.20
2019-04-28T01:31:01.096Z,11.20
2019-04-28T01:33:55.541Z,11.20
2019-04-28T01:36:25.392Z,11.10
2019-04-28T01:38:55.268Z,11.10
2019-04-28T01:41:25.051Z,11.10
2019-04-28T01:43:54.887Z,11.00
2019-04-28T01:46:24.790Z,11.00
2019-04-28T01:48:54.952Z,11.00
2019-04-28T01:51:24.770Z,10.90
2019-04-28T01:53:54.707Z,10.90
2019-04-28T01:56:24.570Z,10.90
2019-04-28T01:58:54.384Z,10.80
2019-04-28T02:01:24.250Z,10.80
2019-04-28T02:03:54.067Z,10.80
2019-04-28T02:06:23.972Z,10.70
2019-04-28T02:08:53.828Z,10.60
2019-04-28T02:11:24.769Z,10.60
2019-04-28T02:13:54.690Z,10.60
2019-04-28T02:16:24.618Z,10.50
2019-04-28T02:18:54.403Z,10.50
2019-04-28T02:21:43.119Z,10.40
2019-04-28T02:24:32.267Z,10.40
2019-04-28T02:27:02.384Z,10.30
2019-04-28T02:29:32.406Z,10.30
2019-04-28T02:32:02.698Z,10.20
2019-04-28T02:34:32.598Z,10.20
2019-04-28T02:37:02.490Z,10.20
2019-04-28T02:39:32.367Z,10.20
2019-04-28T02:42:02.241Z,10.20
2019-04-28T02:44:34.972Z,10.20
2019-04-28T02:47:03.817Z,10.10
2019-04-28T02:49:52.664Z,10.10
2019-04-28T02:52:41.489Z,10.10
2019-04-28T02:55:11.506Z,10.00
2019-04-28T02:57:41.315Z,10.00
2019-04-28T03:00:11.731Z,10.00
2019-04-28T03:02:41.841Z,9.90
2019-04-28T03:05:11.955Z,9.90
2019-04-28T03:07:41.822Z,9.90
2019-04-28T03:10:11.858Z,9.90
2019-04-28T03:12:41.745Z,9.90
2019-04-28T03:15:11.899Z,9.90
2019-04-28T03:17:41.761Z,9.80
2019-04-28T03:20:11.899Z,9.80
2019-04-28T03:22:41.859Z,9.80
2019-04-28T03:25:20.312Z,9.70
2019-04-28T03:28:17.210Z,9.80
2019-04-28T03:31:34.674Z,9.70
2019-04-28T03:33:41.788Z,9.70
2019-04-28T03:36:08.636Z,9.70
2019-04-28T03:38:40.593Z,9.70
2019-04-28T03:41:11.249Z,9.60
2019-04-28T03:43:41.088Z,9.60
2019-04-28T03:46:16.051Z,9.60
2019-04-28T03:48:45.864Z,9.60
2019-04-28T03:51:15.671Z,9.60
2019-04-28T03:53:45.488Z,9.50
2019-04-28T03:56:15.432Z,9.50
2019-04-28T03:58:45.267Z,9.50
2019-04-28T04:01:15.322Z,9.40
2019-04-28T04:03:45.139Z,9.40
2019-04-28T04:06:15.009Z,9.40
2019-04-28T04:08:44.782Z,9.40
2019-04-28T04:11:23.603Z,9.40
2019-04-28T04:14:12.302Z,9.40
2019-04-28T04:16:50.908Z,9.30
2019-04-28T04:19:20.758Z,9.30
2019-04-28T04:21:52.646Z,9.30
2019-04-28T04:24:22.122Z,9.30
2019-04-28T04:26:52.053Z,9.30
2019-04-28T04:29:21.853Z,9.40
2019-04-28T04:31:51.736Z,9.40
2019-04-28T04:34:21.591Z,9.40
2019-04-28T04:36:51.484Z,9.40
2019-04-28T04:39:21.286Z,9.50
2019-04-28T04:41:51.181Z,9.40
2019-04-28T04:44:21.298Z,9.50
2019-04-28T04:46:51.158Z,9.50
2019-04-28T04:49:21.715Z,9.50
2019-04-28T04:51:51.636Z,9.50
2019-04-28T04:54:21.463Z,9.50
2019-04-28T04:56:51.491Z,9.50
2019-04-28T04:59:21.373Z,9.60
2019-04-28T05:02:09.926Z,9.60
2019-04-28T05:05:00.418Z,9.60
2019-04-28T05:07:30.387Z,9.60
2019-04-28T05:10:00.511Z,9.70
2019-04-28T05:12:30.653Z,9.70
2019-04-28T05:15:00.535Z,9.70
2019-04-28T05:17:30.611Z,9.80
2019-04-28T05:20:01.431Z,9.90
2019-04-28T05:22:33.727Z,9.90
2019-04-28T05:25:11.999Z,9.90
2019-04-28T05:27:41.839Z,9.90
2019-04-28T05:30:13.946Z,9.90
2019-04-28T05:32:49.521Z,10.00
2019-04-28T05:35:17.620Z,10.00
2019-04-28T05:37:46.508Z,10.00
2019-04-28T05:40:16.371Z,10.00
2019-04-28T05:43:01.379Z,10.10
2019-04-28T05:45:32.302Z,10.20
2019-04-28T05:48:02.355Z,10.20
2019-04-28T05:50:50.034Z,10.20
2019-04-28T05:53:30.107Z,10.20
2019-04-28T05:56:17.080Z,10.30
2019-04-28T05:59:00.593Z,10.30
2019-04-28T06:01:40.507Z,10.30
2019-04-28T06:04:11.241Z,10.40
2019-04-28T06:06:43.373Z,10.40
2019-04-28T06:09:32.122Z,10.40
2019-04-28T06:12:02.179Z,10.50
2019-04-28T06:14:32.128Z,10.50
2019-04-28T06:17:04.133Z,10.60
2019-04-28T06:19:33.534Z,10.60
2019-04-28T06:22:03.470Z,10.70
2019-04-28T06:24:33.346Z,10.70
2019-04-28T06:27:03.246Z,10.80
2019-04-28T06:29:32.980Z,10.90
2019-04-28T06:32:02.910Z,10.90
2019-04-28T06:34:32.832Z,11.00
2019-04-28T06:37:02.647Z,11.10
2019-04-28T06:39:32.898Z,11.10
2019-04-28T06:42:02.723Z,11.30
2019-04-28T06:44:32.674Z,11.30
2019-04-28T06:47:02.567Z,11.40
2019-04-28T06:49:32.424Z,11.40
2019-04-28T06:52:02.280Z,11.50
2019-04-28T06:54:32.141Z,11.50
2019-04-28T06:57:02.357Z,11.60
2019-04-28T06:59:32.066Z,11.70
2019-04-28T07:02:01.939Z,11.80
2019-04-28T07:04:31.775Z,12.00
2019-04-28T07:07:02.823Z,12.20
2019-04-28T07:09:33.715Z,12.30
2019-04-28T07:12:03.676Z,12.20
2019-04-28T07:14:33.489Z,12.20
2019-04-28T07:17:03.387Z,12.20
2019-04-28T07:19:33.501Z,12.40
2019-04-28T07:22:08.440Z,12.50
2019-04-28T07:24:39.503Z,12.70
2019-04-28T07:27:10.055Z,12.70
2019-04-28T07:29:39.913Z,12.80
2019-04-28T07:32:09.867Z,12.70
2019-04-28T07:34:41.267Z,12.50
2019-04-28T07:37:11.110Z,12.40
2019-04-28T07:39:41.006Z,12.20
2019-04-28T07:42:10.817Z,12.10
2019-04-28T07:44:40.671Z,12.10
2019-04-28T07:47:10.617Z,12.30
2019-04-28T07:49:59.412Z,13.00
2019-04-28T07:52:53.090Z,13.50
2019-04-28T07:55:25.637Z,14.00
2019-04-28T07:58:14.480Z,14.60
2019-04-28T08:00:48.872Z,15.20
2019-04-28T08:03:48.728Z,15.70
2019-04-28T08:06:09.728Z,16.00
2019-04-28T08:08:41.906Z,16.50
2019-04-28T08:11:11.703Z,17.00
2019-04-28T08:13:41.902Z,17.10
2019-04-28T08:16:12.017Z,17.00
2019-04-28T08:18:44.887Z,16.80
2019-04-28T08:21:15.319Z,17.10
2019-04-28T08:23:47.320Z,16.90
2019-04-28T08:26:16.771Z,16.80
2019-04-28T08:28:49.437Z,16.40
2019-04-28T08:31:20.938Z,16.40
2019-04-28T08:34:09.775Z,16.30
2019-04-28T08:36:39.756Z,16.10
2019-04-28T08:39:12.588Z,15.90
2019-04-28T08:41:42.541Z,15.70
2019-04-28T08:44:12.478Z,15.60
2019-04-28T08:46:42.324Z,15.60
2019-04-28T08:49:13.515Z,15.70
2019-04-28T08:51:45.073Z,15.60
2019-04-28T08:54:15.057Z,16.10
2019-04-28T08:56:44.910Z,16.40
2019-04-28T08:59:14.752Z,16.30
2019-04-28T09:01:44.674Z,15.80
2019-04-28T09:04:15.836Z,15.30
2019-04-28T09:06:48.362Z,15.10
2019-04-28T09:09:37.481Z,14.80
2019-04-28T09:12:07.358Z,14.70
2019-04-28T09:14:37.270Z,14.60
2019-04-28T09:17:07.192Z,14.80
2019-04-28T09:19:37.116Z,14.70
2019-04-28T09:22:06.929Z,14.70
2019-04-28T09:24:36.986Z,14.70
2019-04-28T09:27:06.846Z,14.60
2019-04-28T09:29:36.725Z,14.80
2019-04-28T09:32:07.414Z,15.00
2019-04-28T09:34:37.250Z,15.00
2019-04-28T09:37:07.079Z,15.00
2019-04-28T09:39:49.962Z,14.80
2019-04-28T09:42:56.517Z,14.90
2019-04-28T09:45:55.068Z,15.00
2019-04-28T09:48:24.917Z,15.30
2019-04-28T09:50:57.199Z,15.40
2019-04-28T09:53:27.141Z,15.20
2019-04-28T09:56:01.117Z,15.40
2019-04-28T09:58:30.954Z,16.20
2019-04-28T10:01:00.788Z,16.90
2019-04-28T10:03:30.703Z,16.80
2019-04-28T10:06:00.539Z,16.40
2019-04-28T10:08:36.621Z,16.20
2019-04-28T10:11:06.248Z,16.70
2019-04-28T10:13:36.120Z,17.30
2019-04-28T10:16:06.148Z,17.60
2019-04-28T10:18:36.300Z,17.30
2019-04-28T10:21:06.318Z,17.10
2019-04-28T10:23:39.730Z,17.40
2019-04-28T10:26:12.678Z,18.10
2019-04-28T10:28:42.780Z,18.40
2019-04-28T10:31:13.462Z,18.70
2019-04-28T10:33:55.300Z,18.50
2019-04-28T10:36:25.283Z,18.50
2019-04-28T10:38:56.847Z,18.40
2019-04-28T10:41:33.752Z,19.00
2019-04-28T10:44:23.111Z,19.40
2019-04-28T10:46:53.006Z,19.10
2019-04-28T10:49:22.922Z,18.60
2019-04-28T10:52:00.772Z,18.30
2019-04-28T10:54:30.823Z,18.50
2019-04-28T10:57:06.227Z,18.70
2019-04-28T10:59:37.285Z,18.70
2019-04-28T11:02:08.889Z,18.50
2019-04-28T11:05:20.456Z,18.60
2019-04-28T11:07:50.389Z,18.80
2019-04-28T11:10:40.055Z,19.30
2019-04-28T11:13:12.847Z,19.50
2019-04-28T11:15:42.721Z,19.40
2019-04-28T11:18:12.950Z,19.70
2019-04-28T11:20:42.924Z,20.00
2019-04-28T11:23:12.984Z,19.80
2019-04-28T11:25:44.136Z,20.00
2019-04-28T11:28:16.585Z,20.40
2019-04-28T11:30:48.624Z,20.50
2019-04-28T11:33:56.397Z,20.70
2019-04-28T11:36:35.231Z,20.80
2019-04-28T11:39:09.142Z,21.60
2019-04-28T11:41:41.879Z,21.90
2019-04-28T11:44:13.287Z,21.80
2019-04-28T11:46:43.144Z,21.60
2019-04-28T11:49:13.263Z,21.50
2019-04-28T11:52:02.195Z,21.40
2019-04-28T11:54:32.061Z,21.40
2019-04-28T11:57:03.648Z,21.50
2019-04-28T11:59:36.475Z,21.90
2019-04-28T12:02:07.632Z,22.30
2019-04-28T12:04:37.434Z,22.70
2019-04-28T12:07:07.547Z,22.30
2019-04-28T12:09:45.787Z,21.40
2019-04-28T12:12:33.001Z,20.50
2019-04-28T12:15:20.419Z,20.00
2019-04-28T12:18:10.699Z,19.80
2019-04-28T12:20:43.687Z,20.10
2019-04-28T12:23:14.526Z,20.70
2019-04-28T12:25:44.417Z,20.80
2019-04-28T12:28:14.267Z,20.70
2019-04-28T12:30:45.203Z,20.70
2019-04-28T12:33:33.976Z,20.90
2019-04-28T12:36:05.408Z,20.70
2019-04-28T12:38:35.372Z,20.30
2019-04-28T12:41:05.616Z,20.20
2019-04-28T12:43:41.464Z,20.50
2019-04-28T12:46:13.892Z,21.00
2019-04-28T12:48:46.786Z,20.90
2019-04-28T12:51:16.893Z,21.00
2019-04-28T12:53:46.765Z,20.70
2019-04-28T12:56:16.620Z,20.60
2019-04-28T12:58:46.459Z,20.30
2019-04-28T13:01:27.382Z,20.10
2019-04-28T13:04:29.886Z,19.90
2019-04-28T13:07:07.324Z,19.70
2019-04-28T13:09:37.364Z,19.40
2019-04-28T13:12:08.696Z,19.20
2019-04-28T13:14:40.012Z,18.90
2019-04-28T13:17:12.231Z,18.80
2019-04-28T13:19:42.204Z,18.60
2019-04-28T13:22:15.035Z,18.60
2019-04-28T13:24:47.443Z,18.50
2019-04-28T13:27:17.372Z,18.60
2019-04-28T13:29:47.188Z,18.60
2019-04-28T13:32:17.110Z,18.80
2019-04-28T13:34:46.960Z,19.30
2019-04-28T13:37:16.899Z,19.60
2019-04-28T13:40:02.040Z,19.50
2019-04-28T13:42:31.929Z,19.40
2019-04-28T13:45:07.319Z,19.50
2019-04-28T13:47:37.546Z,19.70
2019-04-28T13:50:31.984Z,19.80
2019-04-28T13:53:01.880Z,19.80
2019-04-28T13:56:01.837Z,19.50
2019-04-28T13:58:50.684Z,19.30
2019-04-28T14:01:48.510Z,19.00
2019-04-28T14:04:33.122Z,18.90
2019-04-28T14:07:07.188Z,18.90
2019-04-28T14:09:38.523Z,18.90
2019-04-28T14:12:11.105Z,18.80
2019-04-28T14:14:40.979Z,18.80
2019-04-28T14:17:13.168Z,18.90
2019-04-28T14:19:42.704Z,19.00
2019-04-28T14:22:12.739Z,19.10
2019-04-28T14:24:42.707Z,19.10
2019-04-28T14:27:12.452Z,18.90
2019-04-28T14:29:42.250Z,18.70
2019-04-28T14:32:16.486Z,18.50
2019-04-28T14:34:46.272Z,18.30
2019-04-28T14:37:16.056Z,18.20
2019-04-28T14:39:45.983Z,18.20
2019-04-28T14:42:15.773Z,18.30
2019-04-28T14:44:45.583Z,18.30
2019-04-28T14:47:34.464Z,18.30
2019-04-28T14:50:05.651Z,18.40
2019-04-28T14:52:35.519Z,18.30
2019-04-28T14:55:06.091Z,18.20
2019-04-28T14:57:36.960Z,18.40
2019-04-28T15:00:14.406Z,18.60
2019-04-28T15:03:00.441Z,18.60
2019-04-28T15:05:47.472Z,18.70
2019-04-28T15:08:37.028Z,18.60
2019-04-28T15:11:18.717Z,18.60
2019-04-28T15:13:48.447Z,18.50
2019-04-28T15:16:38.793Z,18.40
2019-04-28T15:19:08.711Z,18.20
2019-04-28T15:21:40.828Z,17.90
2019-04-28T15:24:15.523Z,17.80
2019-04-28T15:26:48.339Z,17.80
2019-04-28T15:29:19.948Z,17.60
2019-04-28T15:31:49.904Z,17.50
2019-04-28T15:34:22.391Z,17.40
2019-04-28T15:37:08.920Z,17.40
2019-04-28T15:42:36.233Z,17.50
2019-04-28T15:45:09.691Z,17.50
2019-04-28T15:48:03.300Z,17.40
2019-04-28T15:50:40.490Z,17.20
2019-04-28T15:53:11.300Z,17.00
2019-04-28T15:55:55.847Z,16.90
2019-04-28T15:58:32.717Z,16.90
2019-04-28T16:01:31.975Z,17.00
2019-04-28T16:04:08.678Z,17.10
2019-04-28T16:07:02.766Z,17.10
2019-04-28T16:10:07.727Z,17.10
2019-04-28T16:12:51.604Z,17.00
2019-04-28T16:15:25.231Z,17.00
2019-04-28T16:17:56.036Z,17.00
2019-04-28T16:20:29.527Z,16.90
2019-04-28T16:22:58.245Z,16.70
2019-04-28T16:26:00.928Z,16.60
2019-04-28T16:28:30.892Z,16.60
2019-04-28T16:31:19.777Z,16.60
2019-04-28T16:33:49.745Z,16.60
2019-04-28T16:36:19.523Z,16.60
2019-04-28T16:38:49.311Z,16.50
2019-04-28T16:41:23.842Z,16.40
2019-04-28T16:43:55.706Z,16.30
2019-04-28T16:46:25.612Z,16.20
2019-04-28T16:48:55.873Z,16.10
2019-04-28T16:51:25.800Z,16.00
2019-04-28T16:53:55.579Z,15.90
2019-04-28T16:56:36.703Z,15.80
2019-04-28T16:59:21.993Z,15.70
2019-04-28T17:01:56.047Z,15.60
2019-04-28T17:04:25.846Z,15.50
2019-04-28T17:06:57.582Z,15.40
2019-04-28T17:09:27.627Z,15.30
2019-04-28T17:11:57.355Z,15.20
2019-04-28T17:14:27.123Z,15.20
2019-04-28T17:16:56.876Z,15.00
2019-04-28T17:19:26.882Z,15.00
2019-04-28T17:21:57.112Z,14.90
2019-04-28T17:24:52.761Z,14.80
2019-04-28T17:27:24.119Z,14.70
2019-04-28T17:29:55.365Z,14.60
2019-04-28T17:32:27.705Z,14.60
2019-04-28T17:34:57.808Z,14.60
2019-04-28T17:37:28.983Z,14.50
2019-04-28T17:39:58.775Z,14.50
2019-04-28T17:42:28.699Z,14.50
2019-04-28T17:44:59.638Z,14.50
2019-04-28T17:47:29.524Z,14.50
2019-04-28T17:49:59.350Z,14.30
2019-04-28T17:52:29.154Z,14.30
2019-04-28T17:54:59.124Z,14.20
2019-04-28T17:57:29.067Z,14.20
2019-04-28T18:00:00.771Z,14.10
2019-04-28T18:02:51.452Z,14.10
2019-04-28T18:05:46.156Z,14.10
2019-04-28T18:08:21.085Z,14.10
2019-04-28T18:10:47.626Z,14.00
2019-04-28T18:13:17.816Z,14.00
2019-04-28T18:16:04.966Z,13.90
2019-04-28T18:18:46.755Z,13.90
2019-04-28T18:21:16.668Z,13.80
2019-04-28T18:23:46.583Z,13.80
2019-04-28T18:26:16.527Z,13.70
2019-04-28T18:28:46.414Z,13.60
2019-04-28T18:31:37.923Z,13.60
2019-04-28T18:34:35.772Z,13.50
2019-04-28T18:37:33.607Z,13.50
2019-04-28T18:40:11.406Z,13.40
2019-04-28T18:42:47.566Z,13.40
2019-04-28T18:45:18.083Z,13.40
2019-04-28T18:47:47.953Z,13.40
2019-04-28T18:50:17.915Z,13.30
2019-04-28T18:52:47.776Z,13.30
2019-04-28T18:55:17.604Z,13.30
2019-04-28T18:57:47.545Z,13.30
2019-04-28T19:00:19.603Z,13.30
2019-04-28T19:02:50.580Z,13.20
2019-04-28T19:05:21.491Z,13.30
2019-04-28T19:08:16.178Z,13.20
2019-04-28T19:11:05.410Z,13.20
2019-04-28T19:13:38.866Z,13.10
2019-04-28T19:16:26.036Z,13.20
2019-04-28T19:18:57.864Z,13.20
2019-04-28T19:21:27.964Z,13.10
2019-04-28T19:23:59.040Z,13.10
2019-04-28T19:26:28.892Z,13.10
2019-04-28T19:28:58.783Z,13.10
2019-04-28T19:31:28.550Z,13.10
2019-04-28T19:33:58.321Z,13.10
2019-04-28T19:36:28.234Z,13.00
2019-04-28T19:39:03.462Z,13.00
2019-04-28T19:41:32.518Z,13.00
2019-04-28T19:44:02.399Z,13.00
2019-04-28T19:46:32.282Z,13.00
2019-04-28T19:49:02.363Z,12.90
2019-04-28T19:51:32.380Z,13.00
2019-04-28T19:54:02.295Z,12.90
2019-04-28T19:56:49.179Z,12.90
2019-04-28T19:59:37.875Z,12.90
2019-04-28T20:02:07.816Z,12.80
2019-04-28T20:04:37.720Z,12.80
2019-04-28T20:07:07.585Z,12.80
2019-04-28T20:09:37.465Z,12.80
2019-04-28T20:12:07.282Z,12.80
2019-04-28T20:14:37.147Z,12.70
2019-04-28T20:17:07.002Z,12.70
2019-04-28T20:19:36.917Z,12.80
2019-04-28T20:22:06.832Z,12.80
2019-04-28T20:24:46.692Z,12.80
2019-04-28T20:27:08.211Z,12.80
2019-04-28T20:29:38.071Z,12.80
2019-04-28T20:32:08.049Z,12.80
2019-04-28T20:34:37.951Z,12.90
2019-04-28T20:37:17.376Z,12.80
2019-04-28T20:39:49.968Z,12.80
2019-04-28T20:42:47.436Z,12.80
2019-04-28T20:45:17.674Z,12.80
2019-04-28T20:47:47.472Z,12.70
2019-04-28T20:50:17.470Z,12.70
2019-04-28T20:52:47.216Z,12.60
2019-04-28T20:55:17.013Z,12.60
2019-04-28T20:57:47.026Z,12.60
2019-04-28T21:00:17.021Z,12.60
2019-04-28T21:02:46.868Z,12.70
2019-04-28T21:05:16.670Z,12.60
2019-04-28T21:07:46.545Z,12.60
2019-04-28T21:10:16.414Z,12.70
2019-04-28T21:12:46.196Z,12.60
2019-04-28T21:15:16.128Z,12.70
2019-04-28T21:17:47.139Z,12.60
2019-04-28T21:20:17.267Z,12.60
2019-04-28T21:22:47.165Z,12.50
2019-04-28T21:25:16.907Z,12.50
2019-04-28T21:27:46.732Z,12.50
2019-04-28T21:30:17.015Z,12.50
2019-04-28T21:32:46.842Z,12.40
2019-04-28T21:35:17.117Z,12.40
2019-04-28T21:37:47.122Z,12.30
2019-04-28T21:40:18.121Z,12.30
2019-04-28T21:43:12.664Z,12.30
2019-04-28T21:46:10.678Z,12.30
2019-04-28T21:48:52.296Z,12.30
2019-04-28T21:51:22.096Z,12.20
2019-04-28T21:53:52.048Z,12.30
2019-04-28T21:56:22.976Z,12.20
2019-04-28T21:58:52.789Z,12.20
2019-04-28T22:01:24.137Z,12.20
2019-04-28T22:03:54.001Z,12.20
2019-04-28T22:06:23.743Z,12.10
2019-04-28T22:08:53.615Z,12.10
2019-04-28T22:11:23.435Z,12.00
2019-04-28T22:13:53.286Z,12.00
2019-04-28T22:16:23.042Z,12.00
2019-04-28T22:18:52.877Z,12.00
2019-04-28T22:21:22.701Z,12.00
2019-04-28T22:24:11.308Z,12.00
2019-04-28T22:26:45.469Z,12.00
2019-04-28T22:29:15.519Z,12.00
2019-04-28T22:31:45.703Z,12.00
2019-04-28T22:34:16.397Z,12.00
2019-04-28T22:36:47.256Z,12.00
2019-04-28T22:39:17.142Z,12.00
2019-04-28T22:41:47.020Z,11.90
2019-04-28T22:44:16.944Z,11.90
2019-04-28T22:46:46.851Z,11.90
2019-04-28T22:49:16.748Z,11.90
2019-04-28T22:51:46.506Z,12.00
2019-04-28T22:54:25.555Z,11.90
2019-04-28T22:57:01.535Z,11.90
2019-04-28T22:59:35.595Z,11.90
2019-04-28T23:02:10.741Z,11.90
2019-04-28T23:04:59.814Z,11.90
2019-04-28T23:07:29.592Z,11.80
2019-04-28T23:09:59.407Z,11.90
2019-04-28T23:12:29.125Z,11.80
2019-04-28T23:14:59.202Z,11.80
2019-04-28T23:17:29.099Z,11.80
2019-04-28T23:19:58.983Z,11.70
2019-04-28T23:22:46.742Z,11.60
2019-04-28T23:25:09.822Z,11.60
2019-04-28T23:27:39.704Z,11.60
2019-04-28T23:30:10.295Z,11.70
2019-04-28T23:32:40.046Z,11.70
2019-04-28T23:35:09.879Z,11.60
2019-04-28T23:37:39.691Z,11.70
2019-04-28T23:40:09.673Z,11.60
2019-04-28T23:42:47.488Z,11.60
2019-04-28T23:45:17.266Z,11.60
2019-04-28T23:47:47.088Z,11.60
2019-04-28T23:50:20.454Z,11.60
2019-04-28T23:53:01.571Z,11.50
2019-04-28T23:55:31.437Z,11.60
2019-04-28T23:58:01.260Z,11.60
